GMP weather

Gimpo International Airport
Seoul, Seoul Teugbyeolsi, South Korea

Public forecast

Using degrees Celsius for public forecast. Weather courtesy of forecast.io.

METAR (pilot weather report)

Retrieved 2019/03/23 01:00 UTC (58 minutes ago):

RKSS 230100Z 22009KT 9999 SCT030 OVC100 07/M02 Q1021 NOSIG

TAF (pilot weather forecast)

Forecast is more than 12 hours old.

Retrieved 2019/03/22 00:00 UTC (1 day ago):

TAF RKSS 222300Z 2300/2406 20007KT 9999 SCT030 BKN120 TX08/2307Z TNM03/2321Z TX10/2406Z BECMG 2301/2302 32015G30KT 6000 TEMPO 2302/2305 3200 -TSRASN FEW010CB BKN025 OVC060 BECMG 2310/2311 32010KT NSC BECMG 2315/2316 03006KT BECMG 2400/2401 24012KT